Time;durP1;ratioP1;P1;durP2;ratioP2;P2;SDS_P1;SDS_P2;PMS_P1;PMS_P2;Temp;Humidity;BMP_temperature;BMP_pressure;BME280_temperature;BME280_humidity;BME280_pressure;Samples;Min_cycle;Max_cycle;Signal;HPM_P1;HPM_P2
2023/08/24 00:01:12;;;;;;;1.17;0.40;;;;;;;28.29;44.68;101016.03;5050376;28;20446;-76
2023/08/24 00:03:38;;;;;;;1.83;0.52;;;;;;;28.27;44.72;101019.06;5050712;28;20377;-75
2023/08/24 00:06:04;;;;;;;0.90;0.30;;;;;;;28.24;44.66;101025.09;5050628;28;20416;-76
2023/08/24 00:08:30;;;;;;;1.30;0.55;;;;;;;27.99;45.61;101020.56;5051238;28;20454;-75
2023/08/24 00:10:55;;;;;;;0.73;0.40;;;;;;;27.96;45.45;101023.84;5051767;28;20845;-75
2023/08/24 00:13:21;;;;;;;1.43;0.50;;;;;;;28.02;45.58;101015.38;5053319;28;20380;-75
2023/08/24 00:15:46;;;;;;;1.58;0.43;;;;;;;28.09;45.25;101020.53;5052009;28;20388;-75
2023/08/24 00:18:12;;;;;;;0.80;0.50;;;;;;;27.70;47.23;101028.56;5048433;28;20443;-77
2023/08/24 00:20:38;;;;;;;1.30;0.70;;;;;;;27.16;48.96;101032.72;5040601;28;20396;-76
2023/08/24 00:23:03;;;;;;;2.17;0.70;;;;;;;27.18;48.23;101014.22;5043144;28;20400;-76
2023/08/24 00:25:30;;;;;;;1.33;0.60;;;;;;;27.12;48.97;101027.03;5041217;28;20477;-76
2023/08/24 00:27:56;;;;;;;1.42;0.70;;;;;;;27.09;48.81;101022.13;5041802;28;20459;-75
2023/08/24 00:30:23;;;;;;;1.38;0.47;;;;;;;26.98;49.37;101018.59;5040180;28;20411;-75
2023/08/24 00:32:49;;;;;;;1.33;0.50;;;;;;;27.18;48.62;101019.66;5041195;28;20837;-76
2023/08/24 00:35:15;;;;;;;0.93;0.57;;;;;;;27.15;49.02;101017.47;5040592;28;20405;-76
2023/08/24 00:37:41;;;;;;;1.27;0.50;;;;;;;27.05;48.85;101015.59;5039559;28;20742;-76
2023/08/24 00:40:11;;;;;;;2.65;0.85;;;;;;;27.14;48.36;101016.69;5039565;28;20406;-76
2023/08/24 00:42:41;;;;;;;1.27;0.38;;;;;;;27.29;48.11;101010.41;5030632;28;20418;-76
2023/08/24 00:45:09;;;;;;;2.25;0.60;;;;;;;27.26;48.07;101010.94;5031648;28;20401;-75
2023/08/24 00:47:35;;;;;;;1.50;0.50;;;;;;;27.25;47.92;101010.13;5031661;28;20425;-76
2023/08/24 00:50:01;;;;;;;1.98;0.65;;;;;;;27.21;48.50;101010.97;5031393;28;20779;-76
2023/08/24 00:52:30;;;;;;;3.87;1.00;;;;;;;27.01;49.27;101012.59;5032903;28;20469;-76
2023/08/24 00:54:56;;;;;;;1.92;0.68;;;;;;;27.00;49.76;101010.16;5033550;28;20851;-76
2023/08/24 00:57:22;;;;;;;1.93;0.70;;;;;;;26.90;49.71;101002.78;5033443;28;20495;-76
2023/08/24 00:59:48;;;;;;;1.40;0.60;;;;;;;26.97;49.41;101005.25;5032977;28;20394;-76
2023/08/24 01:02:14;;;;;;;1.57;0.50;;;;;;;27.01;49.12;101000.88;5033286;28;20382;-77
2023/08/24 01:04:45;;;;;;;1.75;0.60;;;;;;;27.05;49.09;101002.81;5033270;28;20417;-77
2023/08/24 01:07:11;;;;;;;3.63;0.98;;;;;;;27.00;49.17;101002.81;5033223;28;20402;-76
2023/08/24 01:09:36;;;;;;;1.60;0.50;;;;;;;26.97;49.25;100995.19;5033261;28;20873;-76
2023/08/24 01:12:20;;;;;;;1.27;0.53;;;;;;;27.00;48.95;101004.72;5033119;28;20465;-76
2023/08/24 01:15:18;;;;;;;1.55;0.40;;;;;;;26.98;49.31;100996.00;5033458;28;20393;-77
2023/08/24 01:17:47;;;;;;;1.88;0.40;;;;;;;27.09;48.89;100982.09;5033241;28;20405;-76
2023/08/24 01:20:15;;;;;;;2.55;0.75;;;;;;;27.21;48.29;100983.75;5033006;28;20382;-77
2023/08/24 01:23:07;;;;;;;2.05;0.60;;;;;;;27.14;48.45;100983.22;5032937;28;20382;-77
2023/08/24 01:26:19;;;;;;;2.20;0.90;;;;;;;27.13;48.97;100984.28;5006485;28;20465;-76
2023/08/24 01:28:46;;;;;;;1.50;0.50;;;;;;;27.01;49.29;100981.84;5017182;28;20452;-77
2023/08/24 01:31:16;;;;;;;1.45;0.57;;;;;;;26.71;51.00;100980.78;5032955;28;20489;-76
2023/08/24 01:33:41;;;;;;;1.08;0.60;;;;;;;26.57;51.15;100975.03;5015349;28;20693;-76
2023/08/24 01:36:10;;;;;;;2.00;1.00;;;;;;;26.58;51.39;100984.84;5032894;28;20383;-76
2023/08/24 01:38:36;;;;;;;2.93;0.70;;;;;;;26.43;51.72;100974.72;5032981;28;21256;-76
2023/08/24 01:41:23;;;;;;;1.30;0.43;;;;;;;26.33;52.23;100991.84;5032638;28;20379;-75
2023/08/24 01:43:53;;;;;;;1.65;0.65;;;;;;;26.30;51.77;100984.22;5032686;28;20374;-76
2023/08/24 01:46:22;;;;;;;1.40;0.57;;;;;;;26.30;51.57;100970.63;5033160;28;20458;-75
2023/08/24 01:48:48;;;;;;;2.10;0.60;;;;;;;26.41;51.07;100971.47;5032616;28;20472;-76
2023/08/24 01:51:14;;;;;;;1.83;0.80;;;;;;;26.41;51.19;100976.91;5031766;28;20437;-75
2023/08/24 01:53:41;;;;;;;1.70;0.68;;;;;;;26.42;51.20;100980.47;5032699;28;20379;-75
2023/08/24 01:56:15;;;;;;;1.55;0.57;;;;;;;26.49;50.68;100975.59;5032427;28;20469;-75
2023/08/24 01:58:40;;;;;;;1.58;0.50;;;;;;;26.46;50.70;100976.91;5032491;28;20378;-76
2023/08/24 02:01:07;;;;;;;1.40;0.50;;;;;;;26.42;50.79;100975.84;5032577;28;20456;-77
2023/08/24 02:03:32;;;;;;;2.38;0.65;;;;;;;26.50;50.48;100971.75;5032991;28;20469;-76
2023/08/24 02:05:58;;;;;;;1.17;0.40;;;;;;;26.53;50.37;100973.94;5032312;28;20505;-75
2023/08/24 02:08:24;;;;;;;1.90;0.57;;;;;;;26.53;50.07;100968.50;5031665;28;20406;-75
2023/08/24 02:10:49;;;;;;;0.90;0.30;;;;;;;26.51;50.03;100963.34;5031623;28;20374;-75
2023/08/24 02:13:14;;;;;;;0.60;0.40;;;;;;;26.46;50.70;100960.59;5031739;28;20411;-79
2023/08/24 02:15:40;;;;;;;1.80;0.50;;;;;;;26.46;50.44;100960.59;5032197;28;20379;-76
2023/08/24 02:18:07;;;;;;;4.73;1.00;;;;;;;26.48;50.53;100958.44;5032350;28;20374;-77
2023/08/24 02:20:36;;;;;;;1.65;0.45;;;;;;;26.61;49.97;100969.91;5032348;28;20374;-75
2023/08/24 02:23:02;;;;;;;1.02;0.40;;;;;;;26.57;50.47;100968.78;5031952;28;20466;-75
2023/08/24 02:25:28;;;;;;;2.30;0.93;;;;;;;26.35;51.82;100977.19;5031657;28;20461;-75
2023/08/24 02:27:54;;;;;;;2.37;0.90;;;;;;;26.16;52.35;100985.03;5031845;28;20417;-76
2023/08/24 02:30:19;;;;;;;1.95;0.75;;;;;;;26.19;52.34;100988.03;5031996;28;20707;-76
2023/08/24 02:32:45;;;;;;;2.37;0.80;;;;;;;26.21;52.00;100980.41;5031843;28;20486;-76
2023/08/24 02:35:10;;;;;;;1.25;0.40;;;;;;;26.31;51.56;100968.75;5031167;28;20387;-76
2023/08/24 02:37:36;;;;;;;2.33;0.85;;;;;;;26.39;51.22;100973.66;5031860;28;20378;-76
2023/08/24 02:40:02;;;;;;;1.40;0.40;;;;;;;26.46;51.03;100971.47;5031561;28;20382;-76
2023/08/24 02:42:30;;;;;;;2.00;0.60;;;;;;;26.51;50.89;100973.41;5031751;28;20862;-76
2023/08/24 02:44:56;;;;;;;1.60;0.50;;;;;;;26.43;51.26;100974.72;5031900;28;20390;-76
2023/08/24 02:47:21;;;;;;;1.57;0.67;;;;;;;26.33;51.40;100972.03;5031592;28;20386;-76
2023/08/24 02:49:47;;;;;;;1.23;0.50;;;;;;;26.22;51.97;100984.78;5031490;28;20466;-76
2023/08/24 02:52:12;;;;;;;1.50;0.65;;;;;;;26.07;52.62;100991.00;5031500;28;20378;-76
2023/08/24 02:54:38;;;;;;;1.70;0.63;;;;;;;25.81;53.85;100995.47;5031983;28;20397;-76
2023/08/24 02:57:03;;;;;;;2.47;0.80;;;;;;;25.72;53.98;101002.50;5032058;28;20448;-76
2023/08/24 02:59:29;;;;;;;1.33;0.73;;;;;;;25.64;54.30;100997.56;5031751;28;20378;-76
2023/08/24 03:01:54;;;;;;;1.20;0.57;;;;;;;25.64;54.27;100990.25;5030983;28;20390;-76
2023/08/24 03:04:20;;;;;;;1.23;0.50;;;;;;;25.59;53.87;100984.78;5031121;28;20498;-76
2023/08/24 03:06:45;;;;;;;1.67;0.80;;;;;;;25.64;54.01;100995.69;5031234;28;20444;-76
2023/08/24 03:09:11;;;;;;;2.57;0.90;;;;;;;25.66;53.89;100984.53;5030852;28;20421;-76
2023/08/24 03:11:37;;;;;;;1.73;0.65;;;;;;;25.74;53.74;100990.28;5031117;28;20393;-76
2023/08/24 03:14:02;;;;;;;2.03;0.73;;;;;;;25.58;54.15;100995.91;5031112;28;20370;-76
2023/08/24 03:16:28;;;;;;;0.82;0.45;;;;;;;25.56;54.09;100994.25;5031153;28;20402;-76
2023/08/24 03:18:53;;;;;;;0.87;0.40;;;;;;;25.59;54.20;101001.06;5037217;28;20372;-76
2023/08/24 03:21:19;;;;;;;0.50;0.33;;;;;;;25.64;54.07;100994.84;5051265;28;20392;-76
2023/08/24 03:23:44;;;;;;;13.05;1.55;;;;;;;25.56;53.96;100993.44;5058606;28;20375;-76
2023/08/24 03:26:10;;;;;;;1.42;0.52;;;;;;;25.62;53.98;100997.81;5060731;28;20469;-76
2023/08/24 03:28:35;;;;;;;1.23;0.57;;;;;;;25.65;53.92;100991.88;5041865;28;20405;-75
2023/08/24 03:31:01;;;;;;;2.07;0.60;;;;;;;25.65;54.01;100999.19;5061096;28;20459;-75
2023/08/24 03:33:27;;;;;;;1.20;0.45;;;;;;;25.67;53.78;101000.56;5060146;28;21233;-75
2023/08/24 03:35:53;;;;;;;0.35;0.32;;;;;;;25.63;53.85;100996.75;5058977;28;20736;-76
2023/08/24 03:38:19;;;;;;;0.70;0.50;;;;;;;25.62;53.80;100994.28;5058402;28;20367;-76
2023/08/24 03:40:44;;;;;;;1.60;0.50;;;;;;;25.58;54.01;101004.84;5042172;28;20391;-76
2023/08/24 03:43:11;;;;;;;0.90;0.37;;;;;;;25.60;54.13;101004.59;5062334;28;20381;-76
2023/08/24 03:45:36;;;;;;;1.40;0.43;;;;;;;25.68;53.69;101010.34;5040943;28;20383;-76
2023/08/24 03:48:02;;;;;;;1.13;0.57;;;;;;;25.72;53.61;101010.63;5062988;28;20404;-76
2023/08/24 03:50:27;;;;;;;0.80;0.30;;;;;;;25.80;53.15;101014.75;5055884;28;20377;-75
2023/08/24 03:52:54;;;;;;;1.60;0.73;;;;;;;25.82;53.09;101027.00;5069887;28;20862;-76
2023/08/24 03:55:21;;;;;;;1.10;0.60;;;;;;;25.71;53.08;101025.28;5055119;28;20445;-75
2023/08/24 03:57:46;;;;;;;1.80;0.73;;;;;;;25.73;53.11;101033.97;5037408;28;20919;-75
2023/08/24 04:00:14;;;;;;;1.53;0.70;;;;;;;25.59;53.70;101041.78;5054059;28;20373;-76
2023/08/24 04:02:42;;;;;;;1.67;0.73;;;;;;;25.46;54.16;101036.81;5054587;28;20945;-75
2023/08/24 04:05:08;;;;;;;2.50;1.23;;;;;;;25.41;54.48;101044.91;5054756;28;20412;-75
2023/08/24 04:07:36;;;;;;;0.80;0.80;;;;;;;25.47;54.31;101035.75;5052835;28;20434;-76
2023/08/24 04:10:05;;;;;;;1.20;0.52;;;;;;;25.56;54.00;101034.97;5047646;28;20402;-76
2023/08/24 04:12:31;;;;;;;1.48;0.52;;;;;;;25.66;53.65;101039.66;5039966;28;20447;-75
2023/08/24 04:14:57;;;;;;;1.25;0.40;;;;;;;25.73;53.33;101042.97;5033454;28;20408;-75
2023/08/24 04:17:23;;;;;;;1.30;0.40;;;;;;;25.80;52.98;101037.28;5032615;28;20417;-75
2023/08/24 04:19:49;;;;;;;1.00;0.30;;;;;;;25.98;52.55;101038.75;5034122;28;20375;-75
2023/08/24 04:22:14;;;;;;;0.40;0.30;;;;;;;26.08;52.43;101038.00;5032958;28;20459;-76
2023/08/24 04:24:40;;;;;;;1.05;0.40;;;;;;;26.06;52.55;101035.53;5033216;28;20858;-76
2023/08/24 04:27:06;;;;;;;0.50;0.20;;;;;;;26.00;52.62;101039.31;5035270;28;20470;-76
2023/08/24 04:29:32;;;;;;;2.30;0.70;;;;;;;26.00;52.69;101038.47;5034303;28;20727;-76
2023/08/24 04:31:57;;;;;;;1.77;0.60;;;;;;;25.99;52.78;101036.88;5033629;28;20366;-76
2023/08/24 04:34:23;;;;;;;1.00;0.60;;;;;;;25.91;53.01;101041.69;5036412;28;20390;-74
2023/08/24 04:36:48;;;;;;;1.17;0.50;;;;;;;25.93;53.13;101045.00;5033230;28;20370;-76
2023/08/24 04:39:14;;;;;;;1.63;0.50;;;;;;;25.94;53.06;101054.75;5033024;28;20448;-75
2023/08/24 04:41:39;;;;;;;0.70;0.40;;;;;;;26.01;52.89;101048.28;5033181;28;20379;-76
2023/08/24 04:44:06;;;;;;;0.63;0.30;;;;;;;26.16;52.57;101044.78;5033653;28;20874;-76
2023/08/24 04:46:31;;;;;;;1.30;0.60;;;;;;;26.03;52.69;101057.78;5033741;28;20379;-76
2023/08/24 04:48:57;;;;;;;1.20;0.50;;;;;;;26.17;52.51;101041.81;5034437;28;20417;-78
2023/08/24 04:51:22;;;;;;;0.50;0.40;;;;;;;26.26;52.21;101042.94;5034300;28;20465;-77
2023/08/24 04:53:48;;;;;;;0.93;0.75;;;;;;;26.33;52.07;101048.13;5033469;28;20378;-79
2023/08/24 04:56:14;;;;;;;0.77;0.30;;;;;;;26.23;52.30;101053.50;5031668;28;20379;-76
2023/08/24 04:58:40;;;;;;;0.70;0.50;;;;;;;26.34;52.13;101055.16;5031969;28;20450;-78
2023/08/24 05:01:05;;;;;;;0.63;0.53;;;;;;;26.38;52.06;101059.00;5033183;28;20506;-78
2023/08/24 05:03:31;;;;;;;0.90;0.70;;;;;;;26.19;52.40;101057.84;5034074;28;20397;-76
2023/08/24 05:05:56;;;;;;;0.40;0.40;;;;;;;26.27;52.51;101050.00;5033548;28;20417;-78
2023/08/24 05:08:22;;;;;;;0.73;0.50;;;;;;;26.33;52.22;101064.44;5033777;28;20886;-77
2023/08/24 05:10:47;;;;;;;1.20;0.63;;;;;;;26.10;52.38;101058.34;5034346;28;20465;-78
2023/08/24 05:13:13;;;;;;;2.23;1.13;;;;;;;26.24;52.67;101066.03;5033952;28;20425;-77
2023/08/24 05:15:38;;;;;;;1.92;0.70;;;;;;;26.39;52.25;101063.34;5033534;28;20448;-77
2023/08/24 05:18:04;;;;;;;3.00;0.90;;;;;;;26.51;52.18;101071.28;5034498;28;20378;-77
2023/08/24 05:20:29;;;;;;;1.43;0.60;;;;;;;26.48;51.81;101061.75;5034003;28;20906;-77
2023/08/24 05:22:55;;;;;;;1.20;0.57;;;;;;;26.74;51.47;101071.88;5033765;28;20366;-76
2023/08/24 05:25:21;;;;;;;1.83;0.70;;;;;;;26.82;51.34;101080.31;5033593;28;20390;-78
2023/08/24 05:27:47;;;;;;;1.40;0.45;;;;;;;26.90;51.08;101070.81;5033583;28;20412;-77
2023/08/24 05:30:12;;;;;;;2.43;1.37;;;;;;;27.04;51.03;101063.75;5034757;28;20471;-79
2023/08/24 05:32:38;;;;;;;1.75;0.50;;;;;;;27.12;50.55;101061.56;5033746;28;20918;-78
2023/08/24 05:35:08;;;;;;;1.40;0.83;;;;;;;26.92;51.38;101060.50;5035783;28;20777;-78
2023/08/24 05:37:34;;;;;;;1.23;0.50;;;;;;;26.80;51.44;101078.97;5037188;28;20382;-78
2023/08/24 05:40:01;;;;;;;1.63;0.80;;;;;;;26.78;51.67;101075.72;5037078;28;20447;-79
2023/08/24 05:42:27;;;;;;;1.00;0.40;;;;;;;26.92;51.52;101073.25;5034039;28;20446;-78
2023/08/24 05:44:52;;;;;;;1.70;0.77;;;;;;;26.94;51.10;101062.91;5033186;28;20394;-77
2023/08/24 05:47:18;;;;;;;1.45;0.70;;;;;;;26.95;51.09;101070.81;5046048;28;20388;-77
2023/08/24 05:49:43;;;;;;;1.67;0.70;;;;;;;27.11;50.90;101062.66;5053067;28;20975;-79
2023/08/24 05:52:09;;;;;;;1.07;0.50;;;;;;;27.29;50.46;101077.66;5053698;28;20369;-79
2023/08/24 05:54:36;;;;;;;1.35;0.70;;;;;;;27.52;50.07;101076.28;5053953;28;20373;-78
2023/08/24 05:57:03;;;;;;;1.70;1.00;;;;;;;27.55;49.65;101064.81;5052903;28;20392;-78
2023/08/24 05:59:29;;;;;;;1.23;0.47;;;;;;;27.75;49.47;101069.38;5036319;28;20380;-77
2023/08/24 06:01:55;;;;;;;1.23;0.50;;;;;;;27.82;49.34;101065.31;5048808;28;20369;-78
2023/08/24 06:04:20;;;;;;;1.40;0.50;;;;;;;28.05;48.95;101068.50;5052391;28;20369;-78
2023/08/24 06:06:46;;;;;;;0.65;0.50;;;;;;;28.17;48.66;101058.09;5053834;28;20381;-78
2023/08/24 06:09:11;;;;;;;0.80;0.43;;;;;;;28.30;48.49;101061.31;5057597;28;20425;-78
2023/08/24 06:11:37;;;;;;;1.23;0.50;;;;;;;28.32;48.24;101062.66;5055135;28;20385;-79
2023/08/24 06:14:02;;;;;;;1.30;0.60;;;;;;;28.43;48.23;101077.03;5052474;28;21064;-77
2023/08/24 06:16:28;;;;;;;1.50;0.60;;;;;;;28.51;48.14;101071.00;5051523;28;20377;-78
2023/08/24 06:18:54;;;;;;;1.20;0.68;;;;;;;28.60;48.42;101069.34;5043380;28;20719;-77
2023/08/24 06:21:20;;;;;;;1.57;0.67;;;;;;;28.95;47.71;101069.34;5059619;28;20938;-78
2023/08/24 06:23:47;;;;;;;1.23;0.70;;;;;;;29.05;47.51;101071.22;5062168;28;20377;-77
2023/08/24 06:26:13;;;;;;;1.48;0.60;;;;;;;29.11;47.15;101070.06;5052035;28;20392;-78
2023/08/24 06:28:38;;;;;;;1.35;0.57;;;;;;;29.16;47.18;101070.84;5053933;28;20399;-78
2023/08/24 06:31:04;;;;;;;2.07;0.80;;;;;;;29.25;47.07;101078.44;5058892;28;20381;-79
2023/08/24 06:33:33;;;;;;;1.37;0.57;;;;;;;29.34;46.87;101073.97;5051349;28;20876;-79
2023/08/24 06:36:00;;;;;;;1.70;0.80;;;;;;;29.47;46.67;101067.81;5054413;28;20387;-78
2023/08/24 06:38:25;;;;;;;0.80;0.47;;;;;;;29.73;45.81;101065.66;5051714;28;20438;-78
2023/08/24 06:40:51;;;;;;;1.55;0.90;;;;;;;29.60;45.75;101069.06;5051791;28;20380;-79
2023/08/24 06:43:16;;;;;;;1.37;1.00;;;;;;;29.33;45.55;101062.25;5065074;28;20860;-77
2023/08/24 06:45:44;;;;;;;1.33;0.60;;;;;;;29.60;45.22;101068.25;5054160;28;20465;-78
2023/08/24 06:48:09;;;;;;;0.87;0.50;;;;;;;29.61;45.47;101056.22;5055280;28;20402;-77
2023/08/24 06:50:36;;;;;;;1.50;0.60;;;;;;;29.78;45.14;101064.78;5063083;28;20677;-78
2023/08/24 06:53:03;;;;;;;2.03;1.00;;;;;;;29.95;45.02;101077.19;5067870;28;20443;-77
2023/08/24 06:55:28;;;;;;;1.48;0.63;;;;;;;30.06;44.43;101074.03;5069557;28;20391;-77
2023/08/24 06:57:54;;;;;;;1.90;1.00;;;;;;;30.08;44.63;101076.47;5069917;28;20462;-79
2023/08/24 07:00:20;;;;;;;0.93;0.47;;;;;;;29.96;44.47;101076.88;5063951;28;20373;-78
2023/08/24 07:02:49;;;;;;;1.10;0.60;;;;;;;30.16;44.30;101069.53;5059882;28;20492;-80
2023/08/24 07:05:18;;;;;;;0.88;0.50;;;;;;;30.34;43.99;101065.22;5064279;28;20418;-79
2023/08/24 07:07:47;;;;;;;1.58;0.65;;;;;;;30.57;43.60;101074.47;5054121;28;20414;-79
2023/08/24 07:10:13;;;;;;;2.53;0.90;;;;;;;30.72;43.58;101066.03;5045771;28;20381;-77
2023/08/24 07:12:44;;;;;;;2.15;0.60;;;;;;;30.72;43.58;101070.69;5051767;28;20404;-78
2023/08/24 07:15:10;;;;;;;0.70;0.50;;;;;;;30.67;43.47;101071.59;5059481;28;20391;-78
2023/08/24 07:17:36;;;;;;;0.83;0.40;;;;;;;30.97;42.95;101070.31;5058133;28;20393;-78
2023/08/24 07:20:05;;;;;;;1.70;0.80;;;;;;;31.20;42.76;101067.72;5052589;28;20575;-78
2023/08/24 07:22:30;;;;;;;2.00;0.50;;;;;;;31.25;42.85;101062.16;5052689;28;20379;-79
2023/08/24 07:24:56;;;;;;;1.43;0.70;;;;;;;31.23;41.96;101065.22;5052706;28;20385;-77
2023/08/24 07:27:21;;;;;;;1.40;1.10;;;;;;;31.39;42.31;101056.72;5020936;28;20417;-77
2023/08/24 07:29:47;;;;;;;2.00;0.80;;;;;;;31.44;41.61;101057.44;5038379;28;20406;-76
2023/08/24 07:32:13;;;;;;;2.17;0.90;;;;;;;31.24;40.99;101069.59;5038332;28;20392;-75
2023/08/24 07:34:38;;;;;;;2.07;0.93;;;;;;;31.28;41.27;101064.31;5037956;28;20411;-75
2023/08/24 07:37:04;;;;;;;1.30;0.60;;;;;;;31.50;41.05;101051.91;5038500;28;20760;-77
2023/08/24 07:39:29;;;;;;;1.27;0.80;;;;;;;31.66;40.79;101058.69;5035993;28;20444;-78
2023/08/24 07:41:55;;;;;;;1.60;0.70;;;;;;;31.42;40.81;101061.56;5033295;28;20394;-78
2023/08/24 07:44:21;;;;;;;1.30;0.70;;;;;;;31.65;41.09;101056.25;5059123;28;20610;-77
2023/08/24 07:46:49;;;;;;;2.30;1.00;;;;;;;31.84;40.35;101065.19;5054081;28;20480;-77
2023/08/24 07:49:15;;;;;;;1.08;0.63;;;;;;;31.66;40.18;101049.66;5060310;28;20751;-77
2023/08/24 07:51:42;;;;;;;1.67;0.63;;;;;;;31.67;40.12;101051.28;5047198;28;20466;-75
2023/08/24 07:54:08;;;;;;;1.27;0.60;;;;;;;32.01;39.93;101056.34;5071231;28;20370;-75
2023/08/24 07:56:34;;;;;;;0.90;0.50;;;;;;;31.99;39.68;101050.34;5070963;28;20433;-75
2023/08/24 07:59:00;;;;;;;0.87;0.40;;;;;;;32.12;39.31;101046.00;5071220;28;20397;-76
2023/08/24 08:01:25;;;;;;;1.63;0.60;;;;;;;32.02;39.37;101055.22;5051070;28;20442;-75
2023/08/24 08:03:50;;;;;;;0.77;0.60;;;;;;;31.85;39.50;101058.59;5073074;28;20485;-76
2023/08/24 08:06:16;;;;;;;0.57;0.50;;;;;;;31.59;39.83;101058.28;5074526;28;20407;-76
2023/08/24 08:08:42;;;;;;;0.80;0.60;;;;;;;31.70;40.20;101048.75;5073407;28;20441;-75
2023/08/24 08:11:07;;;;;;;0.77;0.70;;;;;;;31.75;39.29;101059.63;5056254;28;20484;-77
2023/08/24 08:13:33;;;;;;;1.45;0.52;;;;;;;32.09;38.95;101054.81;5074187;28;20429;-76
2023/08/24 08:16:06;;;;;;;1.00;0.50;;;;;;;32.31;38.96;101045.84;5071095;28;20378;-76
2023/08/24 08:18:32;;;;;;;1.15;0.57;;;;;;;32.41;38.34;101045.59;5071342;28;20375;-77
2023/08/24 08:20:58;;;;;;;1.65;0.60;;;;;;;32.27;38.61;101040.19;5073094;28;20382;-76
2023/08/24 08:23:24;;;;;;;1.35;0.77;;;;;;;32.36;37.93;101034.78;5054242;28;20882;-75
2023/08/24 08:25:50;;;;;;;0.57;0.30;;;;;;;32.51;37.53;101044.56;5071783;28;20368;-76
2023/08/24 08:28:17;;;;;;;1.70;0.70;;;;;;;32.84;37.97;101044.34;5053803;28;20398;-77
2023/08/24 08:30:43;;;;;;;0.88;0.52;;;;;;;33.06;37.30;101040.78;5072203;28;20407;-75
2023/08/24 08:33:08;;;;;;;1.20;0.60;;;;;;;33.02;37.14;101032.34;5071341;28;20390;-75
2023/08/24 08:35:33;;;;;;;1.65;0.60;;;;;;;32.95;37.12;101031.97;5073917;28;20414;-76
2023/08/24 08:37:59;;;;;;;1.20;0.77;;;;;;;33.02;36.69;101026.84;5075536;28;20454;-76
2023/08/24 08:40:29;;;;;;;0.63;0.40;;;;;;;32.95;36.39;101031.97;5074747;28;20453;-76
2023/08/24 08:42:58;;;;;;;0.77;0.45;;;;;;;33.16;36.58;101024.06;5055956;28;20375;-76
2023/08/24 08:45:28;;;;;;;0.80;0.40;;;;;;;33.58;36.42;101023.75;5075076;28;20709;-77
2023/08/24 08:47:58;;;;;;;1.20;0.47;;;;;;;33.55;35.30;101027.94;5074049;28;20399;-76
2023/08/24 08:50:25;;;;;;;0.70;0.50;;;;;;;33.44;35.68;101027.44;5075164;28;20375;-76
2023/08/24 08:52:51;;;;;;;1.45;0.50;;;;;;;33.42;35.46;101023.34;5074890;28;20375;-75
2023/08/24 08:55:17;;;;;;;0.95;0.52;;;;;;;33.53;35.68;101032.97;5056936;28;21148;-75
2023/08/24 08:57:43;;;;;;;2.00;0.60;;;;;;;33.61;35.77;101025.84;5074092;28;20387;-75
2023/08/24 09:00:14;;;;;;;2.25;1.00;;;;;;;33.48;35.42;101017.41;5073083;28;20812;-75
2023/08/24 09:02:44;;;;;;;1.55;0.65;;;;;;;33.30;35.72;101022.03;5072824;28;20717;-75
2023/08/24 09:05:10;;;;;;;3.15;1.23;;;;;;;33.44;35.45;101013.69;5072633;28;20414;-75
2023/08/24 09:07:39;;;;;;;1.90;0.80;;;;;;;33.38;35.70;101019.63;5072833;28;20375;-75
2023/08/24 09:10:06;;;;;;;1.77;0.70;;;;;;;33.42;35.48;101017.84;5072809;28;20470;-75
2023/08/24 09:12:34;;;;;;;1.75;0.77;;;;;;;33.66;35.12;101006.50;5054770;28;20474;-76
2023/08/24 09:15:04;;;;;;;0.88;0.50;;;;;;;33.86;35.21;101013.34;5073546;28;20390;-80
2023/08/24 09:17:29;;;;;;;0.77;0.47;;;;;;;33.73;35.73;101009.59;5074580;28;20475;-76
2023/08/24 09:19:59;;;;;;;1.37;0.70;;;;;;;33.65;35.92;101010.34;5073952;28;20371;-76
2023/08/24 09:22:24;;;;;;;1.30;1.00;;;;;;;33.94;35.57;101004.28;5073817;28;20437;-75
2023/08/24 09:24:51;;;;;;;1.93;0.60;;;;;;;34.14;35.14;101002.88;5073357;28;20773;-75
2023/08/24 09:27:20;;;;;;;1.05;0.50;;;;;;;34.35;34.89;100991.22;5073263;28;20470;-77
2023/08/24 09:29:52;;;;;;;1.50;0.70;;;;;;;34.32;34.38;100991.88;5073727;28;20478;-77
2023/08/24 09:32:28;;;;;;;1.40;0.65;;;;;;;34.32;34.22;100998.19;5075045;28;20378;-76
2023/08/24 09:34:54;;;;;;;1.40;0.70;;;;;;;34.49;34.01;100993.81;5073700;28;20866;-75
2023/08/24 09:37:20;;;;;;;1.08;0.60;;;;;;;34.42;33.49;100997.84;5073543;28;20385;-77
2023/08/24 09:39:45;;;;;;;1.95;0.60;;;;;;;34.36;33.53;100999.16;5074398;28;20363;-78
2023/08/24 09:42:12;;;;;;;0.50;0.40;;;;;;;34.26;33.70;100993.97;5074477;28;20896;-75
2023/08/24 09:44:37;;;;;;;1.20;0.57;;;;;;;34.54;33.55;101005.47;5074139;28;20431;-75
2023/08/24 09:47:10;;;;;;;1.70;0.90;;;;;;;34.59;33.19;100983.28;5056186;28;20379;-79
2023/08/24 09:49:36;;;;;;;1.08;0.70;;;;;;;34.79;32.73;100994.75;5056927;28;20506;-75
2023/08/24 09:52:06;;;;;;;1.48;0.68;;;;;;;34.72;32.40;100983.41;5072679;28;20462;-75
2023/08/24 09:54:34;;;;;;;1.83;0.60;;;;;;;34.93;32.23;100986.28;5072388;28;20919;-74
2023/08/24 09:57:01;;;;;;;1.50;0.70;;;;;;;35.08;32.65;100982.19;5072580;28;20383;-75
2023/08/24 09:59:27;;;;;;;1.45;0.80;;;;;;;35.02;32.08;100976.03;5073148;28;20386;-76
2023/08/24 10:01:56;;;;;;;2.03;0.80;;;;;;;34.74;32.65;100987.47;5072964;28;20394;-74
2023/08/24 10:04:24;;;;;;;0.80;0.50;;;;;;;34.98;32.23;100980.59;5072725;28;20547;-76
2023/08/24 10:07:20;;;;;;;1.45;0.57;;;;;;;35.18;32.26;100954.28;5072980;28;20788;-75
2023/08/24 10:10:03;;;;;;;0.83;0.37;;;;;;;35.33;32.29;100963.94;5072966;28;20928;-75
2023/08/24 10:12:31;;;;;;;0.85;0.55;;;;;;;35.32;31.75;100952.13;5073698;28;20379;-76
2023/08/24 10:15:03;;;;;;;0.82;0.60;;;;;;;35.38;31.95;100944.47;5075352;28;20447;-75
2023/08/24 10:17:33;;;;;;;0.40;0.40;;;;;;;35.59;31.64;100944.50;5074445;28;20383;-77
2023/08/24 10:20:08;;;;;;;1.10;0.73;;;;;;;35.67;31.84;100938.09;5055775;28;20383;-77
2023/08/24 10:22:35;;;;;;;1.23;0.90;;;;;;;35.72;31.54;100937.94;5073319;28;20375;-77
2023/08/24 10:25:02;;;;;;;0.77;0.40;;;;;;;35.64;31.22;100937.97;5072977;28;20450;-76
2023/08/24 10:27:29;;;;;;;1.27;0.50;;;;;;;35.62;31.32;100930.06;5072916;28;20478;-76
2023/08/24 10:30:00;;;;;;;1.20;0.67;;;;;;;35.81;31.08;100929.59;5054748;28;20398;-77
2023/08/24 10:32:26;;;;;;;1.40;0.50;;;;;;;35.89;30.24;100923.22;5073869;28;20390;-75
2023/08/24 10:34:52;;;;;;;0.90;0.40;;;;;;;35.91;30.59;100923.69;5073988;28;20383;-76
2023/08/24 10:37:25;;;;;;;0.83;0.50;;;;;;;35.90;30.76;100921.25;5073200;28;20386;-75
2023/08/24 10:39:50;;;;;;;0.73;0.63;;;;;;;36.03;30.26;100909.13;5075089;28;20843;-77
2023/08/24 10:42:16;;;;;;;1.55;0.60;;;;;;;36.14;30.23;100917.81;5070102;28;20399;-76
2023/08/24 10:44:46;;;;;;;0.77;0.30;;;;;;;36.01;30.36;100910.63;5052992;28;20381;-77
2023/08/24 10:47:14;;;;;;;0.75;0.45;;;;;;;36.09;30.12;100907.00;5051368;28;20466;-75
2023/08/24 10:49:41;;;;;;;1.45;0.57;;;;;;;36.03;30.07;100905.56;5034402;28;20409;-75
2023/08/24 10:52:20;;;;;;;1.35;0.70;;;;;;;36.01;29.99;100905.09;5042166;28;20542;-76
2023/08/24 10:54:48;;;;;;;1.60;0.55;;;;;;;35.83;29.72;100888.69;5051644;28;20845;-78
2023/08/24 10:57:35;;;;;;;1.17;0.45;;;;;;;36.12;30.02;100887.81;5051358;28;20419;-75
2023/08/24 11:00:09;;;;;;;0.45;0.40;;;;;;;36.28;29.39;100881.66;5062536;28;20432;-76
2023/08/24 11:02:45;;;;;;;0.68;0.30;;;;;;;36.31;29.48;100862.47;5052645;28;20385;-77
2023/08/24 11:05:33;;;;;;;1.15;0.50;;;;;;;36.28;29.56;100873.38;5055675;28;20451;-77
2023/08/24 11:08:04;;;;;;;0.65;0.40;;;;;;;36.32;29.72;100871.53;5056880;28;20412;-77
2023/08/24 11:10:42;;;;;;;1.23;0.50;;;;;;;36.29;28.18;100858.44;5061265;28;20397;-76
2023/08/24 11:13:14;;;;;;;1.65;0.60;;;;;;;36.30;29.10;100852.59;5051807;28;20738;-77
2023/08/24 11:15:45;;;;;;;2.05;1.10;;;;;;;36.40;28.63;100851.31;5052887;28;20381;-79
2023/08/24 11:18:12;;;;;;;0.55;0.35;;;;;;;36.34;28.45;100855.47;5044768;28;20394;-76
2023/08/24 11:20:37;;;;;;;0.22;0.22;;;;;;;36.33;28.50;100851.88;5045088;28;20384;-76
2023/08/24 11:23:04;;;;;;;0.73;0.40;;;;;;;36.34;28.26;100847.19;5054676;28;20383;-76
2023/08/24 11:25:30;;;;;;;0.53;0.30;;;;;;;36.48;28.24;100844.91;5053719;28;20440;-77